sensor_id;sensor_type;location;lat;lon;timestamp;P1;durP1;ratioP1;P2;durP2;ratioP2
55493;SDS011;41355;50.390;19.096;2023-04-24T00:02:16;20.83;;;9.80;;
55493;SDS011;41355;50.390;19.096;2023-04-24T00:04:42;22.30;;;10.18;;
55493;SDS011;41355;50.390;19.096;2023-04-24T00:07:11;21.05;;;10.05;;
55493;SDS011;41355;50.390;19.096;2023-04-24T00:09:38;21.95;;;9.43;;
55493;SDS011;41355;50.390;19.096;2023-04-24T00:12:04;21.08;;;9.38;;
55493;SDS011;41355;50.390;19.096;2023-04-24T00:14:30;22.60;;;10.23;;
55493;SDS011;41355;50.390;19.096;2023-04-24T00:16:56;16.77;;;9.05;;
55493;SDS011;41355;50.390;19.096;2023-04-24T00:19:22;19.65;;;9.32;;
55493;SDS011;41355;50.390;19.096;2023-04-24T00:21:48;17.98;;;9.15;;
55493;SDS011;41355;50.390;19.096;2023-04-24T00:24:15;18.67;;;9.40;;
55493;SDS011;41355;50.390;19.096;2023-04-24T00:26:41;19.42;;;8.98;;
55493;SDS011;41355;50.390;19.096;2023-04-24T00:29:07;17.20;;;8.85;;
55493;SDS011;41355;50.390;19.096;2023-04-24T00:31:33;13.90;;;7.80;;
55493;SDS011;41355;50.390;19.096;2023-04-24T00:34:00;16.33;;;7.80;;
55493;SDS011;41355;50.390;19.096;2023-04-24T00:36:27;21.50;;;8.55;;
55493;SDS011;41355;50.390;19.096;2023-04-24T00:38:53;17.42;;;8.32;;
55493;SDS011;41355;50.390;19.096;2023-04-24T00:41:19;15.18;;;8.25;;
55493;SDS011;41355;50.390;19.096;2023-04-24T00:43:46;17.48;;;7.70;;
55493;SDS011;41355;50.390;19.096;2023-04-24T00:46:12;13.90;;;7.47;;
55493;SDS011;41355;50.390;19.096;2023-04-24T00:48:41;15.25;;;7.57;;
55493;SDS011;41355;50.390;19.096;2023-04-24T00:51:08;15.88;;;7.85;;
55493;SDS011;41355;50.390;19.096;2023-04-24T00:53:34;15.32;;;8.05;;
55493;SDS011;41355;50.390;19.096;2023-04-24T00:56:01;16.92;;;9.32;;
55493;SDS011;41355;50.390;19.096;2023-04-24T00:58:28;17.83;;;9.07;;
55493;SDS011;41355;50.390;19.096;2023-04-24T01:00:55;19.98;;;9.13;;
55493;SDS011;41355;50.390;19.096;2023-04-24T01:03:24;20.05;;;9.80;;
55493;SDS011;41355;50.390;19.096;2023-04-24T01:05:51;21.05;;;9.05;;
55493;SDS011;41355;50.390;19.096;2023-04-24T01:08:17;22.00;;;10.60;;
55493;SDS011;41355;50.390;19.096;2023-04-24T01:10:44;20.27;;;9.38;;
55493;SDS011;41355;50.390;19.096;2023-04-24T01:13:11;19.52;;;10.70;;
55493;SDS011;41355;50.390;19.096;2023-04-24T01:15:37;22.95;;;10.55;;
55493;SDS011;41355;50.390;19.096;2023-04-24T01:18:03;21.23;;;10.45;;
55493;SDS011;41355;50.390;19.096;2023-04-24T01:20:29;18.75;;;10.18;;
55493;SDS011;41355;50.390;19.096;2023-04-24T01:22:57;17.77;;;10.00;;
55493;SDS011;41355;50.390;19.096;2023-04-24T01:25:23;21.33;;;9.27;;
55493;SDS011;41355;50.390;19.096;2023-04-24T01:27:50;19.77;;;9.88;;
55493;SDS011;41355;50.390;19.096;2023-04-24T01:30:17;20.30;;;10.05;;
55493;SDS011;41355;50.390;19.096;2023-04-24T01:32:43;16.48;;;8.75;;
55493;SDS011;41355;50.390;19.096;2023-04-24T01:35:10;18.38;;;9.48;;
55493;SDS011;41355;50.390;19.096;2023-04-24T01:37:36;18.42;;;9.02;;
55493;SDS011;41355;50.390;19.096;2023-04-24T01:40:04;15.38;;;9.40;;
55493;SDS011;41355;50.390;19.096;2023-04-24T01:42:30;21.35;;;9.20;;
55493;SDS011;41355;50.390;19.096;2023-04-24T01:44:56;17.63;;;8.65;;
55493;SDS011;41355;50.390;19.096;2023-04-24T01:47:22;19.50;;;9.50;;
55493;SDS011;41355;50.390;19.096;2023-04-24T01:49:49;19.83;;;9.82;;
55493;SDS011;41355;50.390;19.096;2023-04-24T01:52:16;16.52;;;9.13;;
55493;SDS011;41355;50.390;19.096;2023-04-24T01:54:43;17.10;;;9.48;;
55493;SDS011;41355;50.390;19.096;2023-04-24T01:57:09;19.35;;;9.43;;
55493;SDS011;41355;50.390;19.096;2023-04-24T01:59:36;18.30;;;9.38;;
55493;SDS011;41355;50.390;19.096;2023-04-24T02:02:02;17.45;;;9.40;;
55493;SDS011;41355;50.390;19.096;2023-04-24T02:04:28;15.27;;;8.85;;
55493;SDS011;41355;50.390;19.096;2023-04-24T02:06:54;17.48;;;8.80;;
55493;SDS011;41355;50.390;19.096;2023-04-24T02:09:20;16.45;;;8.98;;
55493;SDS011;41355;50.390;19.096;2023-04-24T02:11:47;19.67;;;9.73;;
55493;SDS011;41355;50.390;19.096;2023-04-24T02:14:13;16.38;;;8.65;;
55493;SDS011;41355;50.390;19.096;2023-04-24T02:16:39;15.70;;;8.27;;
55493;SDS011;41355;50.390;19.096;2023-04-24T02:19:05;17.50;;;8.70;;
55493;SDS011;41355;50.390;19.096;2023-04-24T02:21:31;17.52;;;7.82;;
55493;SDS011;41355;50.390;19.096;2023-04-24T02:23:57;20.02;;;8.52;;
55493;SDS011;41355;50.390;19.096;2023-04-24T02:26:23;17.60;;;8.27;;
55493;SDS011;41355;50.390;19.096;2023-04-24T02:28:49;18.23;;;8.20;;
55493;SDS011;41355;50.390;19.096;2023-04-24T02:31:15;17.55;;;8.63;;
55493;SDS011;41355;50.390;19.096;2023-04-24T02:33:41;17.48;;;8.70;;
55493;SDS011;41355;50.390;19.096;2023-04-24T02:36:07;16.02;;;8.52;;
55493;SDS011;41355;50.390;19.096;2023-04-24T02:38:33;14.77;;;7.88;;
55493;SDS011;41355;50.390;19.096;2023-04-24T02:40:59;16.35;;;8.13;;
55493;SDS011;41355;50.390;19.096;2023-04-24T02:43:27;16.23;;;7.25;;
55493;SDS011;41355;50.390;19.096;2023-04-24T02:45:53;14.10;;;7.25;;
55493;SDS011;41355;50.390;19.096;2023-04-24T02:48:19;13.93;;;6.93;;
55493;SDS011;41355;50.390;19.096;2023-04-24T02:50:46;12.05;;;6.88;;
55493;SDS011;41355;50.390;19.096;2023-04-24T02:53:12;14.90;;;7.50;;
55493;SDS011;41355;50.390;19.096;2023-04-24T02:55:38;17.25;;;7.28;;
55493;SDS011;41355;50.390;19.096;2023-04-24T02:58:04;14.75;;;7.10;;
55493;SDS011;41355;50.390;19.096;2023-04-24T03:00:31;14.48;;;6.97;;
55493;SDS011;41355;50.390;19.096;2023-04-24T03:02:57;15.07;;;7.03;;
55493;SDS011;41355;50.390;19.096;2023-04-24T03:05:23;11.35;;;6.05;;
55493;SDS011;41355;50.390;19.096;2023-04-24T03:07:49;11.40;;;5.72;;
55493;SDS011;41355;50.390;19.096;2023-04-24T03:10:15;12.60;;;6.75;;
55493;SDS011;41355;50.390;19.096;2023-04-24T03:12:41;12.13;;;6.15;;
55493;SDS011;41355;50.390;19.096;2023-04-24T03:15:07;15.75;;;6.97;;
55493;SDS011;41355;50.390;19.096;2023-04-24T03:17:33;13.95;;;6.28;;
55493;SDS011;41355;50.390;19.096;2023-04-24T03:20:00;11.00;;;5.95;;
55493;SDS011;41355;50.390;19.096;2023-04-24T03:22:26;12.48;;;6.13;;
55493;SDS011;41355;50.390;19.096;2023-04-24T03:24:52;11.68;;;6.50;;
55493;SDS011;41355;50.390;19.096;2023-04-24T03:27:19;15.02;;;6.63;;
55493;SDS011;41355;50.390;19.096;2023-04-24T03:29:45;11.90;;;6.68;;
55493;SDS011;41355;50.390;19.096;2023-04-24T03:32:11;12.27;;;6.22;;
55493;SDS011;41355;50.390;19.096;2023-04-24T03:34:37;11.68;;;6.13;;
55493;SDS011;41355;50.390;19.096;2023-04-24T03:37:03;13.57;;;6.53;;
55493;SDS011;41355;50.390;19.096;2023-04-24T03:39:29;12.82;;;6.22;;
55493;SDS011;41355;50.390;19.096;2023-04-24T03:41:55;17.40;;;6.55;;
55493;SDS011;41355;50.390;19.096;2023-04-24T03:44:21;11.18;;;6.00;;
55493;SDS011;41355;50.390;19.096;2023-04-24T03:46:47;12.55;;;5.78;;
55493;SDS011;41355;50.390;19.096;2023-04-24T03:49:13;14.57;;;6.45;;
55493;SDS011;41355;50.390;19.096;2023-04-24T03:51:39;11.82;;;6.10;;
55493;SDS011;41355;50.390;19.096;2023-04-24T03:54:05;13.02;;;6.07;;
55493;SDS011;41355;50.390;19.096;2023-04-24T03:56:31;11.95;;;6.15;;
55493;SDS011;41355;50.390;19.096;2023-04-24T03:58:57;15.20;;;6.10;;
55493;SDS011;41355;50.390;19.096;2023-04-24T04:01:23;13.43;;;6.00;;
55493;SDS011;41355;50.390;19.096;2023-04-24T04:03:49;16.42;;;6.40;;
55493;SDS011;41355;50.390;19.096;2023-04-24T04:06:15;12.52;;;5.55;;
55493;SDS011;41355;50.390;19.096;2023-04-24T04:08:41;11.57;;;5.32;;
55493;SDS011;41355;50.390;19.096;2023-04-24T04:11:07;12.40;;;6.35;;
55493;SDS011;41355;50.390;19.096;2023-04-24T04:13:33;12.77;;;6.38;;
55493;SDS011;41355;50.390;19.096;2023-04-24T04:15:59;13.23;;;5.78;;
55493;SDS011;41355;50.390;19.096;2023-04-24T04:18:25;16.98;;;6.25;;
55493;SDS011;41355;50.390;19.096;2023-04-24T04:20:51;17.27;;;8.10;;
55493;SDS011;41355;50.390;19.096;2023-04-24T04:23:18;15.45;;;7.25;;
55493;SDS011;41355;50.390;19.096;2023-04-24T04:25:44;15.68;;;6.80;;
55493;SDS011;41355;50.390;19.096;2023-04-24T04:28:11;12.25;;;6.15;;
55493;SDS011;41355;50.390;19.096;2023-04-24T04:30:37;12.38;;;6.40;;
55493;SDS011;41355;50.390;19.096;2023-04-24T04:33:05;10.45;;;6.00;;
55493;SDS011;41355;50.390;19.096;2023-04-24T04:35:31;13.90;;;6.13;;
55493;SDS011;41355;50.390;19.096;2023-04-24T04:37:57;13.88;;;6.07;;
55493;SDS011;41355;50.390;19.096;2023-04-24T04:40:23;11.35;;;5.53;;
55493;SDS011;41355;50.390;19.096;2023-04-24T04:42:49;14.38;;;6.05;;
55493;SDS011;41355;50.390;19.096;2023-04-24T04:45:18;17.13;;;6.60;;
55493;SDS011;41355;50.390;19.096;2023-04-24T04:47:45;15.55;;;6.30;;
55493;SDS011;41355;50.390;19.096;2023-04-24T04:50:11;11.15;;;6.35;;
55493;SDS011;41355;50.390;19.096;2023-04-24T04:52:37;13.57;;;5.82;;
55493;SDS011;41355;50.390;19.096;2023-04-24T04:55:03;10.25;;;5.57;;
55493;SDS011;41355;50.390;19.096;2023-04-24T04:57:30;13.23;;;6.03;;
55493;SDS011;41355;50.390;19.096;2023-04-24T04:59:56;15.45;;;6.35;;
55493;SDS011;41355;50.390;19.096;2023-04-24T05:02:22;15.07;;;6.60;;
55493;SDS011;41355;50.390;19.096;2023-04-24T05:04:48;18.48;;;7.55;;
55493;SDS011;41355;50.390;19.096;2023-04-24T05:07:14;18.38;;;7.50;;
55493;SDS011;41355;50.390;19.096;2023-04-24T05:09:40;14.80;;;6.47;;
55493;SDS011;41355;50.390;19.096;2023-04-24T05:12:06;13.88;;;6.25;;
55493;SDS011;41355;50.390;19.096;2023-04-24T05:14:33;13.70;;;5.47;;
55493;SDS011;41355;50.390;19.096;2023-04-24T05:16:59;14.73;;;6.13;;
55493;SDS011;41355;50.390;19.096;2023-04-24T05:19:25;13.05;;;6.22;;
55493;SDS011;41355;50.390;19.096;2023-04-24T05:21:52;10.80;;;5.50;;
55493;SDS011;41355;50.390;19.096;2023-04-24T05:24:18;14.95;;;5.50;;
55493;SDS011;41355;50.390;19.096;2023-04-24T05:26:43;12.85;;;5.10;;
55493;SDS011;41355;50.390;19.096;2023-04-24T05:29:10;10.68;;;4.95;;
55493;SDS011;41355;50.390;19.096;2023-04-24T05:31:36;18.60;;;7.35;;
55493;SDS011;41355;50.390;19.096;2023-04-24T05:34:02;15.65;;;6.25;;
55493;SDS011;41355;50.390;19.096;2023-04-24T05:36:30;15.68;;;7.57;;
55493;SDS011;41355;50.390;19.096;2023-04-24T05:38:56;26.05;;;10.63;;
55493;SDS011;41355;50.390;19.096;2023-04-24T05:41:22;29.08;;;11.63;;
55493;SDS011;41355;50.390;19.096;2023-04-24T05:43:48;14.68;;;7.03;;
55493;SDS011;41355;50.390;19.096;2023-04-24T05:46:14;16.80;;;7.50;;
55493;SDS011;41355;50.390;19.096;2023-04-24T05:48:40;12.88;;;5.97;;
55493;SDS011;41355;50.390;19.096;2023-04-24T05:51:06;11.45;;;5.65;;
55493;SDS011;41355;50.390;19.096;2023-04-24T05:53:32;14.48;;;5.75;;
55493;SDS011;41355;50.390;19.096;2023-04-24T05:55:58;11.05;;;5.45;;
55493;SDS011;41355;50.390;19.096;2023-04-24T05:58:24;15.63;;;5.47;;
55493;SDS011;41355;50.390;19.096;2023-04-24T06:00:50;10.75;;;5.32;;
55493;SDS011;41355;50.390;19.096;2023-04-24T06:03:16;13.10;;;5.07;;
55493;SDS011;41355;50.390;19.096;2023-04-24T06:05:42;12.90;;;5.32;;
55493;SDS011;41355;50.390;19.096;2023-04-24T06:08:09;14.18;;;6.00;;
55493;SDS011;41355;50.390;19.096;2023-04-24T06:10:35;14.60;;;5.80;;
55493;SDS011;41355;50.390;19.096;2023-04-24T06:13:01;15.25;;;5.93;;
55493;SDS011;41355;50.390;19.096;2023-04-24T06:15:30;14.65;;;5.75;;
55493;SDS011;41355;50.390;19.096;2023-04-24T06:17:57;16.13;;;5.80;;
55493;SDS011;41355;50.390;19.096;2023-04-24T06:20:23;12.55;;;5.68;;
55493;SDS011;41355;50.390;19.096;2023-04-24T06:22:50;13.23;;;5.70;;
55493;SDS011;41355;50.390;19.096;2023-04-24T06:25:16;10.85;;;5.35;;
55493;SDS011;41355;50.390;19.096;2023-04-24T06:27:42;9.85;;;5.43;;
55493;SDS011;41355;50.390;19.096;2023-04-24T06:30:08;11.48;;;5.20;;
55493;SDS011;41355;50.390;19.096;2023-04-24T06:32:34;10.60;;;5.20;;
55493;SDS011;41355;50.390;19.096;2023-04-24T06:35:00;12.25;;;5.18;;
55493;SDS011;41355;50.390;19.096;2023-04-24T06:37:26;12.15;;;5.30;;
55493;SDS011;41355;50.390;19.096;2023-04-24T06:39:53;9.73;;;4.72;;
55493;SDS011;41355;50.390;19.096;2023-04-24T06:42:19;11.00;;;5.00;;
55493;SDS011;41355;50.390;19.096;2023-04-24T06:44:46;8.95;;;5.05;;
55493;SDS011;41355;50.390;19.096;2023-04-24T06:47:12;10.60;;;4.80;;
55493;SDS011;41355;50.390;19.096;2023-04-24T06:49:41;12.25;;;4.53;;
55493;SDS011;41355;50.390;19.096;2023-04-24T06:52:07;9.65;;;4.38;;
55493;SDS011;41355;50.390;19.096;2023-04-24T06:54:33;9.65;;;4.40;;
55493;SDS011;41355;50.390;19.096;2023-04-24T06:56:59;12.15;;;4.88;;
55493;SDS011;41355;50.390;19.096;2023-04-24T06:59:26;10.85;;;3.95;;
55493;SDS011;41355;50.390;19.096;2023-04-24T07:01:53;12.43;;;4.30;;
55493;SDS011;41355;50.390;19.096;2023-04-24T07:04:19;9.95;;;4.38;;
55493;SDS011;41355;50.390;19.096;2023-04-24T07:06:45;7.07;;;4.07;;
55493;SDS011;41355;50.390;19.096;2023-04-24T07:09:11;9.63;;;3.53;;
55493;SDS011;41355;50.390;19.096;2023-04-24T07:11:38;6.55;;;3.75;;
55493;SDS011;41355;50.390;19.096;2023-04-24T07:14:06;12.80;;;4.30;;
55493;SDS011;41355;50.390;19.096;2023-04-24T07:16:32;8.43;;;4.00;;
55493;SDS011;41355;50.390;19.096;2023-04-24T07:18:58;8.65;;;3.78;;
55493;SDS011;41355;50.390;19.096;2023-04-24T07:21:24;8.18;;;4.20;;
55493;SDS011;41355;50.390;19.096;2023-04-24T07:23:50;11.23;;;4.50;;
55493;SDS011;41355;50.390;19.096;2023-04-24T07:26:16;7.35;;;3.75;;
55493;SDS011;41355;50.390;19.096;2023-04-24T07:28:42;10.05;;;4.40;;
55493;SDS011;41355;50.390;19.096;2023-04-24T07:31:08;8.70;;;3.80;;
55493;SDS011;41355;50.390;19.096;2023-04-24T07:33:34;7.50;;;3.47;;
55493;SDS011;41355;50.390;19.096;2023-04-24T07:36:01;7.70;;;3.70;;
55493;SDS011;41355;50.390;19.096;2023-04-24T07:38:29;6.93;;;3.58;;
55493;SDS011;41355;50.390;19.096;2023-04-24T07:40:55;7.20;;;3.60;;
55493;SDS011;41355;50.390;19.096;2023-04-24T07:43:21;8.07;;;3.17;;
55493;SDS011;41355;50.390;19.096;2023-04-24T07:45:48;9.63;;;4.13;;
55493;SDS011;41355;50.390;19.096;2023-04-24T07:48:15;7.10;;;3.85;;
55493;SDS011;41355;50.390;19.096;2023-04-24T07:50:42;9.93;;;3.60;;
55493;SDS011;41355;50.390;19.096;2023-04-24T07:53:08;7.45;;;3.60;;
55493;SDS011;41355;50.390;19.096;2023-04-24T07:55:34;7.80;;;3.08;;
55493;SDS011;41355;50.390;19.096;2023-04-24T07:58:01;7.05;;;3.50;;
55493;SDS011;41355;50.390;19.096;2023-04-24T08:00:27;8.90;;;3.92;;
55493;SDS011;41355;50.390;19.096;2023-04-24T08:02:53;9.15;;;3.90;;
55493;SDS011;41355;50.390;19.096;2023-04-24T08:05:19;6.82;;;3.42;;
55493;SDS011;41355;50.390;19.096;2023-04-24T08:07:45;7.13;;;3.55;;
55493;SDS011;41355;50.390;19.096;2023-04-24T08:10:13;5.75;;;3.25;;
55493;SDS011;41355;50.390;19.096;2023-04-24T08:12:40;8.20;;;3.83;;
55493;SDS011;41355;50.390;19.096;2023-04-24T08:15:07;10.77;;;4.13;;
55493;SDS011;41355;50.390;19.096;2023-04-24T08:17:36;8.55;;;3.75;;
55493;SDS011;41355;50.390;19.096;2023-04-24T08:20:02;9.05;;;3.95;;
55493;SDS011;41355;50.390;19.096;2023-04-24T08:22:30;6.40;;;3.80;;
55493;SDS011;41355;50.390;19.096;2023-04-24T08:24:56;6.25;;;3.15;;
55493;SDS011;41355;50.390;19.096;2023-04-24T08:27:25;8.15;;;3.20;;
55493;SDS011;41355;50.390;19.096;2023-04-24T08:29:52;9.60;;;3.90;;
55493;SDS011;41355;50.390;19.096;2023-04-24T08:32:18;6.80;;;3.47;;
55493;SDS011;41355;50.390;19.096;2023-04-24T08:34:44;8.18;;;3.70;;
55493;SDS011;41355;50.390;19.096;2023-04-24T08:37:11;7.40;;;3.38;;
55493;SDS011;41355;50.390;19.096;2023-04-24T08:39:37;7.47;;;3.40;;
55493;SDS011;41355;50.390;19.096;2023-04-24T08:42:04;7.63;;;4.15;;
55493;SDS011;41355;50.390;19.096;2023-04-24T08:44:33;7.90;;;4.13;;
55493;SDS011;41355;50.390;19.096;2023-04-24T08:47:00;7.47;;;3.60;;
55493;SDS011;41355;50.390;19.096;2023-04-24T08:49:26;6.97;;;3.72;;
55493;SDS011;41355;50.390;19.096;2023-04-24T08:51:53;9.68;;;4.13;;
55493;SDS011;41355;50.390;19.096;2023-04-24T08:54:20;8.40;;;4.50;;
55493;SDS011;41355;50.390;19.096;2023-04-24T08:56:47;9.45;;;4.18;;
55493;SDS011;41355;50.390;19.096;2023-04-24T08:59:14;9.52;;;4.40;;
55493;SDS011;41355;50.390;19.096;2023-04-24T09:01:40;7.35;;;3.25;;
55493;SDS011;41355;50.390;19.096;2023-04-24T09:04:07;6.43;;;3.40;;
55493;SDS011;41355;50.390;19.096;2023-04-24T09:06:35;6.40;;;3.80;;
55493;SDS011;41355;50.390;19.096;2023-04-24T09:09:01;8.07;;;3.58;;
55493;SDS011;41355;50.390;19.096;2023-04-24T09:11:29;9.07;;;4.13;;
55493;SDS011;41355;50.390;19.096;2023-04-24T09:13:55;7.47;;;3.65;;
55493;SDS011;41355;50.390;19.096;2023-04-24T09:16:22;7.60;;;3.80;;
55493;SDS011;41355;50.390;19.096;2023-04-24T09:18:50;8.05;;;3.40;;
55493;SDS011;41355;50.390;19.096;2023-04-24T09:21:16;7.50;;;3.80;;
55493;SDS011;41355;50.390;19.096;2023-04-24T09:23:42;7.88;;;3.75;;
55493;SDS011;41355;50.390;19.096;2023-04-24T09:26:08;5.85;;;3.47;;
55493;SDS011;41355;50.390;19.096;2023-04-24T09:28:36;10.68;;;4.18;;
55493;SDS011;41355;50.390;19.096;2023-04-24T09:33:33;8.20;;;3.42;;
55493;SDS011;41355;50.390;19.096;2023-04-24T09:35:59;6.68;;;3.47;;
55493;SDS011;41355;50.390;19.096;2023-04-24T09:38:32;10.10;;;3.75;;
55493;SDS011;41355;50.390;19.096;2023-04-24T09:40:59;9.05;;;3.78;;
55493;SDS011;41355;50.390;19.096;2023-04-24T09:43:26;7.45;;;3.50;;
55493;SDS011;41355;50.390;19.096;2023-04-24T09:45:55;7.05;;;3.92;;
55493;SDS011;41355;50.390;19.096;2023-04-24T09:48:29;10.13;;;3.70;;
55493;SDS011;41355;50.390;19.096;2023-04-24T09:50:56;6.80;;;3.30;;
55493;SDS011;41355;50.390;19.096;2023-04-24T09:53:24;6.97;;;3.53;;
55493;SDS011;41355;50.390;19.096;2023-04-24T09:55:51;6.47;;;3.20;;
55493;SDS011;41355;50.390;19.096;2023-04-24T09:58:18;5.50;;;3.25;;
55493;SDS011;41355;50.390;19.096;2023-04-24T10:00:44;7.18;;;3.88;;
55493;SDS011;41355;50.390;19.096;2023-04-24T10:03:11;6.45;;;3.20;;
55493;SDS011;41355;50.390;19.096;2023-04-24T10:05:37;7.43;;;3.20;;
55493;SDS011;41355;50.390;19.096;2023-04-24T10:08:07;8.93;;;3.20;;
55493;SDS011;41355;50.390;19.096;2023-04-24T10:10:34;7.25;;;3.33;;
55493;SDS011;41355;50.390;19.096;2023-04-24T10:13:03;5.05;;;2.78;;
55493;SDS011;41355;50.390;19.096;2023-04-24T10:15:29;5.95;;;2.75;;
55493;SDS011;41355;50.390;19.096;2023-04-24T10:17:57;8.38;;;3.58;;
55493;SDS011;41355;50.390;19.096;2023-04-24T10:20:25;10.82;;;3.80;;
55493;SDS011;41355;50.390;19.096;2023-04-24T10:22:53;8.75;;;3.20;;
55493;SDS011;41355;50.390;19.096;2023-04-24T10:25:20;8.73;;;3.30;;
55493;SDS011;41355;50.390;19.096;2023-04-24T10:27:46;7.63;;;3.85;;
55493;SDS011;41355;50.390;19.096;2023-04-24T10:30:13;6.43;;;3.20;;
55493;SDS011;41355;50.390;19.096;2023-04-24T10:32:40;6.70;;;3.50;;
55493;SDS011;41355;50.390;19.096;2023-04-24T10:35:06;9.30;;;3.60;;
55493;SDS011;41355;50.390;19.096;2023-04-24T10:37:36;7.45;;;3.30;;
55493;SDS011;41355;50.390;19.096;2023-04-24T10:40:03;6.75;;;3.20;;
55493;SDS011;41355;50.390;19.096;2023-04-24T10:42:30;6.55;;;3.72;;
55493;SDS011;41355;50.390;19.096;2023-04-24T10:44:56;5.72;;;3.45;;
55493;SDS011;41355;50.390;19.096;2023-04-24T10:47:23;13.63;;;3.42;;
55493;SDS011;41355;50.390;19.096;2023-04-24T10:49:50;6.70;;;3.60;;
55493;SDS011;41355;50.390;19.096;2023-04-24T10:52:17;7.45;;;3.85;;
55493;SDS011;41355;50.390;19.096;2023-04-24T10:54:46;7.68;;;3.53;;
55493;SDS011;41355;50.390;19.096;2023-04-24T10:59:50;6.00;;;3.50;;
55493;SDS011;41355;50.390;19.096;2023-04-24T11:02:17;7.95;;;3.47;;
55493;SDS011;41355;50.390;19.096;2023-04-24T11:04:44;6.47;;;3.17;;
55493;SDS011;41355;50.390;19.096;2023-04-24T11:07:10;6.13;;;3.80;;
55493;SDS011;41355;50.390;19.096;2023-04-24T11:09:36;5.95;;;3.17;;
55493;SDS011;41355;50.390;19.096;2023-04-24T11:12:09;7.63;;;3.30;;
55493;SDS011;41355;50.390;19.096;2023-04-24T11:17:30;9.95;;;3.90;;
55493;SDS011;41355;50.390;19.096;2023-04-24T11:20:10;7.68;;;3.47;;
55493;SDS011;41355;50.390;19.096;2023-04-24T11:22:37;8.55;;;3.45;;
55493;SDS011;41355;50.390;19.096;2023-04-24T11:25:04;6.18;;;3.67;;
55493;SDS011;41355;50.390;19.096;2023-04-24T11:27:41;9.02;;;3.72;;
55493;SDS011;41355;50.390;19.096;2023-04-24T11:30:08;6.93;;;4.03;;
55493;SDS011;41355;50.390;19.096;2023-04-24T11:35:17;5.68;;;2.63;;
55493;SDS011;41355;50.390;19.096;2023-04-24T11:37:44;5.50;;;2.83;;
55493;SDS011;41355;50.390;19.096;2023-04-24T11:40:17;4.90;;;2.30;;
55493;SDS011;41355;50.390;19.096;2023-04-24T11:42:46;7.95;;;3.47;;
55493;SDS011;41355;50.390;19.096;2023-04-24T11:47:41;6.13;;;2.75;;
55493;SDS011;41355;50.390;19.096;2023-04-24T11:50:08;8.52;;;2.75;;
55493;SDS011;41355;50.390;19.096;2023-04-24T11:52:39;9.30;;;3.25;;
55493;SDS011;41355;50.390;19.096;2023-04-24T11:57:43;4.82;;;2.70;;
55493;SDS011;41355;50.390;19.096;2023-04-24T12:00:21;12.63;;;3.45;;
55493;SDS011;41355;50.390;19.096;2023-04-24T12:02:47;8.02;;;2.35;;
55493;SDS011;41355;50.390;19.096;2023-04-24T12:05:24;7.25;;;2.65;;
55493;SDS011;41355;50.390;19.096;2023-04-24T12:07:51;5.60;;;3.13;;
55493;SDS011;41355;50.390;19.096;2023-04-24T12:10:23;4.43;;;2.63;;
55493;SDS011;41355;50.390;19.096;2023-04-24T12:12:50;7.57;;;2.47;;
55493;SDS011;41355;50.390;19.096;2023-04-24T12:15:17;5.97;;;2.97;;
55493;SDS011;41355;50.390;19.096;2023-04-24T12:17:43;6.15;;;3.33;;
55493;SDS011;41355;50.390;19.096;2023-04-24T12:20:10;8.00;;;3.65;;
55493;SDS011;41355;50.390;19.096;2023-04-24T12:22:46;5.97;;;2.42;;
55493;SDS011;41355;50.390;19.096;2023-04-24T12:25:12;7.97;;;4.57;;
55493;SDS011;41355;50.390;19.096;2023-04-24T12:27:39;10.30;;;3.17;;
55493;SDS011;41355;50.390;19.096;2023-04-24T12:30:05;6.10;;;3.55;;
55493;SDS011;41355;50.390;19.096;2023-04-24T12:32:31;5.97;;;3.28;;
55493;SDS011;41355;50.390;19.096;2023-04-24T12:34:58;31.52;;;12.77;;
55493;SDS011;41355;50.390;19.096;2023-04-24T12:37:24;20.77;;;6.60;;
55493;SDS011;41355;50.390;19.096;2023-04-24T12:40:06;8.18;;;4.03;;
55493;SDS011;41355;50.390;19.096;2023-04-24T12:42:33;10.02;;;4.50;;
55493;SDS011;41355;50.390;19.096;2023-04-24T12:45:06;18.75;;;7.47;;
55493;SDS011;41355;50.390;19.096;2023-04-24T12:47:33;13.15;;;6.43;;
55493;SDS011;41355;50.390;19.096;2023-04-24T12:49:59;17.67;;;9.93;;
55493;SDS011;41355;50.390;19.096;2023-04-24T12:52:27;8.13;;;3.20;;
55493;SDS011;41355;50.390;19.096;2023-04-24T12:54:54;10.73;;;5.80;;
55493;SDS011;41355;50.390;19.096;2023-04-24T12:57:20;7.70;;;4.63;;
55493;SDS011;41355;50.390;19.096;2023-04-24T12:59:47;9.73;;;4.88;;
55493;SDS011;41355;50.390;19.096;2023-04-24T13:02:13;8.57;;;3.95;;
55493;SDS011;41355;50.390;19.096;2023-04-24T13:04:42;8.23;;;4.00;;
55493;SDS011;41355;50.390;19.096;2023-04-24T13:07:09;5.32;;;3.08;;
55493;SDS011;41355;50.390;19.096;2023-04-24T13:09:35;7.03;;;4.00;;
55493;SDS011;41355;50.390;19.096;2023-04-24T13:12:01;5.85;;;3.28;;
55493;SDS011;41355;50.390;19.096;2023-04-24T13:14:27;8.68;;;4.35;;
55493;SDS011;41355;50.390;19.096;2023-04-24T13:16:53;5.53;;;3.00;;
55493;SDS011;41355;50.390;19.096;2023-04-24T13:19:19;6.70;;;3.10;;
55493;SDS011;41355;50.390;19.096;2023-04-24T13:21:45;5.80;;;3.15;;
55493;SDS011;41355;50.390;19.096;2023-04-24T13:24:11;7.43;;;3.17;;
55493;SDS011;41355;50.390;19.096;2023-04-24T13:26:38;5.53;;;2.58;;
55493;SDS011;41355;50.390;19.096;2023-04-24T13:29:04;4.32;;;1.95;;
55493;SDS011;41355;50.390;19.096;2023-04-24T13:31:30;7.40;;;3.35;;
55493;SDS011;41355;50.390;19.096;2023-04-24T13:33:56;5.10;;;2.55;;
55493;SDS011;41355;50.390;19.096;2023-04-24T13:36:22;5.95;;;2.25;;
55493;SDS011;41355;50.390;19.096;2023-04-24T13:38:48;5.63;;;2.80;;
55493;SDS011;41355;50.390;19.096;2023-04-24T13:41:14;5.38;;;2.47;;
55493;SDS011;41355;50.390;19.096;2023-04-24T13:43:40;4.72;;;2.53;;
55493;SDS011;41355;50.390;19.096;2023-04-24T13:46:07;3.65;;;1.55;;
55493;SDS011;41355;50.390;19.096;2023-04-24T13:48:34;5.13;;;2.35;;
55493;SDS011;41355;50.390;19.096;2023-04-24T13:51:00;4.70;;;2.10;;
55493;SDS011;41355;50.390;19.096;2023-04-24T13:53:26;5.47;;;2.30;;
55493;SDS011;41355;50.390;19.096;2023-04-24T13:55:52;8.32;;;3.20;;
55493;SDS011;41355;50.390;19.096;2023-04-24T13:58:18;5.32;;;2.58;;
55493;SDS011;41355;50.390;19.096;2023-04-24T14:00:44;3.50;;;1.70;;
55493;SDS011;41355;50.390;19.096;2023-04-24T14:03:10;5.43;;;2.33;;
55493;SDS011;41355;50.390;19.096;2023-04-24T14:05:36;5.35;;;2.70;;
55493;SDS011;41355;50.390;19.096;2023-04-24T14:08:02;5.15;;;1.92;;
55493;SDS011;41355;50.390;19.096;2023-04-24T14:10:28;2.97;;;1.55;;
55493;SDS011;41355;50.390;19.096;2023-04-24T14:12:54;4.78;;;2.78;;
55493;SDS011;41355;50.390;19.096;2023-04-24T14:15:20;4.93;;;2.92;;
55493;SDS011;41355;50.390;19.096;2023-04-24T14:17:47;4.00;;;1.83;;
55493;SDS011;41355;50.390;19.096;2023-04-24T14:20:14;7.53;;;2.92;;
55493;SDS011;41355;50.390;19.096;2023-04-24T14:22:40;5.43;;;2.40;;
55493;SDS011;41355;50.390;19.096;2023-04-24T14:25:07;5.68;;;3.03;;
55493;SDS011;41355;50.390;19.096;2023-04-24T14:27:33;7.22;;;3.35;;
55493;SDS011;41355;50.390;19.096;2023-04-24T14:29:59;5.25;;;2.35;;
55493;SDS011;41355;50.390;19.096;2023-04-24T14:32:25;5.60;;;2.72;;
55493;SDS011;41355;50.390;19.096;2023-04-24T14:34:52;5.63;;;2.45;;
55493;SDS011;41355;50.390;19.096;2023-04-24T14:37:18;5.32;;;2.35;;
55493;SDS011;41355;50.390;19.096;2023-04-24T14:39:44;7.10;;;3.30;;
55493;SDS011;41355;50.390;19.096;2023-04-24T14:42:10;7.75;;;3.35;;